Altona, New York
Current Conditions -  °F | °C
As of 6:53 AM on Wednesday 28 Jan 2015 (Local Time) from KPBG Reporting Station
Broken Clouds Broken Clouds  
Wind Chill:   Ceiling: 11000
Heat Index:   Visibility: 10mi
Dew Point: -1°   Wind: 3mph
Humidity: 73%   Direction: 350°N
Pressure: 30.08"   Gusts: NA
Location:  44.89°N, 73.66°W
Report Text: KPBG 281153Z AUTO 35003KT 10SM SCT055 BKN110 M14/M18 A3008 RMK AO2 SLP192 60000 T11441183 11128 21150 51024
Loading
Personal Weather Stations






























Interactive Weather Map New forecast layout! Learn more

10-Day Weather Forecast

Advertisements
Track Severe Weather on mobile